Time;durP1;ratioP1;P1;durP2;ratioP2;P2;SDS_P1;SDS_P2;PMS_P1;PMS_P2;Temp;Humidity;BMP_temperature;BMP_pressure;BME280_temperature;BME280_humidity;BME280_pressure;Samples;Min_cycle;Max_cycle;Signal;HPM_P1;HPM_P2
2021/03/27 00:00:30;;;;;;;17.90;10.85;;;;;;;13.80;48.37;101189.38;5043184;28;20498;-71
2021/03/27 00:03:23;;;;;;;22.67;12.63;;;;;;;13.65;48.60;101188.31;5036064;28;20048;-70
2021/03/27 00:06:02;;;;;;;14.52;10.68;;;;;;;13.68;48.54;101184.69;5042399;28;20036;-70
2021/03/27 00:08:36;;;;;;;17.60;12.13;;;;;;;13.74;48.16;101187.00;5043650;28;20128;-70
2021/03/27 00:11:32;;;;;;;13.82;10.15;;;;;;;13.67;48.66;101178.59;5040181;28;20044;-69
2021/03/27 00:14:06;;;;;;;13.85;12.38;;;;;;;13.72;48.52;101176.63;5034808;28;20120;-69
2021/03/27 00:16:44;;;;;;;14.93;11.70;;;;;;;13.75;48.52;101176.47;5040337;28;20557;-69
2021/03/27 00:19:32;;;;;;;17.77;12.00;;;;;;;13.67;48.78;101169.91;5048007;28;20082;-69
2021/03/27 00:22:04;;;;;;;18.05;11.23;;;;;;;13.63;48.92;101169.19;5047170;28;20045;-69
2021/03/27 00:24:38;;;;;;;16.83;11.77;;;;;;;13.71;48.49;101176.69;5048845;28;20071;-69
2021/03/27 00:27:17;;;;;;;20.17;12.55;;;;;;;13.72;47.93;101179.22;5052795;28;20083;-69
2021/03/27 00:29:58;;;;;;;20.10;11.23;;;;;;;13.70;48.14;101181.09;5052227;28;20123;-69
2021/03/27 00:32:42;;;;;;;14.02;10.77;;;;;;;13.65;48.87;101174.38;4989089;28;20078;-71
2021/03/27 00:35:16;;;;;;;;;;;;;;;13.71;48.82;101171.44;4987082;28;20477;-70
2021/03/27 00:37:45;;;;;;;13.55;9.88;;;;;;;13.72;48.43;101178.38;4980489;28;19968;-73
2021/03/27 00:40:21;;;;;;;16.73;12.52;;;;;;;13.55;49.19;101173.97;4992459;28;20125;-72
2021/03/27 00:42:58;;;;;;;13.93;11.07;;;;;;;13.49;49.30;101182.97;4979537;28;20129;-73
2021/03/27 00:45:28;;;;;;;15.68;10.35;;;;;;;13.54;49.16;101174.88;4992664;28;20126;-73
2021/03/27 00:48:03;;;;;;;13.63;11.00;;;;;;;13.51;49.38;101181.09;4980334;28;20577;-72
2021/03/27 00:50:41;;;;;;;14.48;9.35;;;;;;;13.42;48.93;101180.69;4986306;28;20559;-74
2021/03/27 00:53:15;;;;;;;13.35;9.63;;;;;;;13.53;48.66;101183.63;4992372;28;20050;-75
2021/03/27 00:55:49;;;;;;;11.85;10.52;;;;;;;13.32;49.96;101189.00;4992514;28;20449;-75
2021/03/27 00:58:25;;;;;;;19.90;11.93;;;;;;;12.89;51.22;101197.91;4992760;28;20051;-74
2021/03/27 01:01:00;;;;;;;14.52;12.45;;;;;;;13.07;50.45;101202.31;4991244;28;20038;-74
2021/03/27 01:03:36;;;;;;;21.13;12.27;;;;;;;12.84;51.37;101211.19;4992634;28;20133;-73
2021/03/27 01:06:12;;;;;;;15.85;13.57;;;;;;;12.64;51.85;101205.97;4981429;28;20129;-74
2021/03/27 01:09:15;;;;;;;18.83;15.18;;;;;;;12.71;51.91;101201.31;4987934;28;20054;-74
2021/03/27 01:12:09;;;;;;;19.08;13.85;;;;;;;12.85;51.24;101207.66;4982308;28;20129;-74
2021/03/27 01:14:51;;;;;;;20.50;14.63;;;;;;;12.84;51.45;101199.88;4981958;28;20073;-73
2021/03/27 01:17:24;;;;;;;23.38;15.32;;;;;;;12.72;51.90;101200.41;4986015;28;20042;-73
2021/03/27 01:19:54;;;;;;;17.85;13.73;;;;;;;12.82;51.22;101199.09;4983408;28;20045;-73
2021/03/27 01:22:23;;;;;;;17.77;13.80;;;;;;;12.78;51.56;101205.34;4986777;28;20085;-75
2021/03/27 01:24:50;;;;;;;16.52;13.98;;;;;;;12.80;51.59;101221.84;4987187;28;20117;-75
2021/03/27 01:27:24;;;;;;;16.58;13.10;;;;;;;12.87;51.33;101214.59;4982765;28;20081;-75
2021/03/27 01:30:09;;;;;;;22.10;14.68;;;;;;;12.91;51.11;101217.00;4985273;28;20069;-75
2021/03/27 01:32:51;;;;;;;17.38;13.88;;;;;;;12.64;52.05;101216.44;4988277;28;20038;-75
2021/03/27 01:35:31;;;;;;;26.58;14.32;;;;;;;12.68;52.12;101206.72;4987470;28;20145;-77
2021/03/27 01:38:21;;;;;;;18.10;14.32;;;;;;;12.68;52.01;101198.84;4985723;28;20050;-77
2021/03/27 01:41:03;;;;;;;19.70;14.60;;;;;;;12.57;52.07;101197.56;4985144;28;20046;-76
2021/03/27 01:43:48;;;;;;;18.90;14.25;;;;;;;12.66;51.45;101195.44;4984230;28;20051;-71
2021/03/27 01:46:45;;;;;;;18.38;14.00;;;;;;;12.65;51.88;101201.59;5001065;28;20050;-72
2021/03/27 01:49:33;;;;;;;16.38;13.88;;;;;;;12.61;51.91;101202.63;4985018;28;20046;-72
2021/03/27 01:52:02;;;;;;;17.13;13.05;;;;;;;12.69;51.80;101201.41;4980997;28;20112;-71
2021/03/27 01:54:39;;;;;;;17.52;13.55;;;;;;;12.70;51.47;101199.63;4984496;28;20050;-72
2021/03/27 01:57:18;;;;;;;20.38;13.15;;;;;;;12.62;52.15;101192.09;4980424;28;20156;-72
2021/03/27 01:59:47;;;;;;;19.83;13.98;;;;;;;12.56;52.40;101185.38;4986205;28;20481;-74
2021/03/27 02:02:30;;;;;;;21.77;14.10;;;;;;;12.53;52.67;101180.28;4984014;28;20062;-73
2021/03/27 02:05:04;;;;;;;17.27;12.95;;;;;;;12.66;51.86;101179.75;4982651;28;20058;-73
2021/03/27 02:07:55;;;;;;;19.88;14.80;;;;;;;12.66;52.44;101174.50;4980207;28;20050;-74
2021/03/27 02:10:44;;;;;;;20.60;14.25;;;;;;;12.73;51.69;101173.31;4983861;28;20043;-73
2021/03/27 02:13:14;;;;;;;20.42;13.82;;;;;;;12.73;51.48;101179.44;4983596;28;20050;-73
2021/03/27 02:15:59;;;;;;;21.50;14.30;;;;;;;12.62;52.38;101178.16;4981099;28;20051;-73
2021/03/27 02:18:35;;;;;;;21.98;14.60;;;;;;;12.71;51.95;101180.41;4988364;28;20181;-73
2021/03/27 02:21:10;;;;;;;23.02;14.95;;;;;;;12.77;51.61;101182.75;4992171;28;20042;-73
2021/03/27 02:23:48;;;;;;;20.40;14.70;;;;;;;12.75;52.03;101184.59;4988470;28;20080;-73
2021/03/27 02:26:39;;;;;;;20.00;15.55;;;;;;;12.75;52.11;101181.97;4982551;28;20467;-73
2021/03/27 02:29:32;;;;;;;24.27;16.48;;;;;;;12.81;51.86;101177.31;4986364;28;20050;-73
2021/03/27 02:32:07;;;;;;;24.15;15.63;;;;;;;12.78;52.00;101176.59;4983443;28;20130;-74
2021/03/27 02:34:44;;;;;;;24.60;16.48;;;;;;;12.83;51.83;101177.22;4985214;28;20050;-74
2021/03/27 02:37:21;;;;;;;22.00;16.25;;;;;;;12.85;51.87;101171.03;4986736;28;20038;-74
2021/03/27 02:40:04;;;;;;;24.63;15.07;;;;;;;12.74;52.39;101175.03;4982242;28;20069;-73
2021/03/27 02:42:42;;;;;;;33.70;17.65;;;;;;;12.81;52.25;101176.47;4980023;28;20568;-73
2021/03/27 02:45:20;;;;;;;28.40;17.75;;;;;;;12.90;51.79;101172.59;4980972;28;20043;-73
2021/03/27 02:47:58;;;;;;;25.52;17.23;;;;;;;13.01;51.45;101163.34;4986910;28;20043;-73
2021/03/27 02:50:43;;;;;;;22.88;16.80;;;;;;;13.07;51.32;101165.66;4983756;28;20476;-74
2021/03/27 02:53:17;;;;;;;21.55;16.35;;;;;;;13.07;51.15;101170.06;4981055;28;20396;-73
2021/03/27 02:56:08;;;;;;;19.63;16.45;;;;;;;13.05;51.10;101164.91;4986580;28;20042;-73
2021/03/27 02:59:27;;;;;;;27.92;17.05;;;;;;;12.70;52.28;101160.38;4983824;28;20042;-74
2021/03/27 03:02:18;;;;;;;23.90;19.00;;;;;;;12.66;52.72;101153.59;4968547;28;20039;-73
2021/03/27 03:05:12;;;;;;;23.95;17.25;;;;;;;12.61;52.78;101166.00;4984766;28;20481;-71
2021/03/27 03:08:08;;;;;;;30.40;18.85;;;;;;;12.63;52.90;101165.06;4980558;28;20489;-71
2021/03/27 03:10:50;;;;;;;22.23;17.23;;;;;;;12.69;52.67;101161.31;4983523;28;20460;-72
2021/03/27 03:13:25;;;;;;;23.25;18.35;;;;;;;12.68;52.87;101157.00;4984517;28;20085;-71
2021/03/27 03:16:14;;;;;;;45.45;19.92;;;;;;;12.78;52.37;101153.03;4981939;28;20133;-71
2021/03/27 03:19:01;;;;;;;26.13;16.17;;;;;;;12.89;51.89;101155.16;4986931;28;20050;-71
2021/03/27 03:21:55;;;;;;;27.70;16.30;;;;;;;12.66;52.30;101169.28;4981660;28;20491;-71
2021/03/27 03:24:43;;;;;;;22.00;15.73;;;;;;;12.57;52.78;101160.94;4978480;28;20063;-72
2021/03/27 03:27:36;;;;;;;25.85;15.73;;;;;;;12.46;53.02;101157.06;4982490;28;20054;-72
2021/03/27 03:30:30;;;;;;;27.00;16.02;;;;;;;12.50;52.92;101154.25;4982611;28;20043;-72
2021/03/27 03:33:23;;;;;;;21.20;16.83;;;;;;;12.66;52.21;101153.59;4983801;28;20540;-72
2021/03/27 03:35:56;;;;;;;20.90;14.75;;;;;;;12.58;52.28;101159.16;4983960;28;20081;-72
2021/03/27 03:38:28;;;;;;;23.40;16.45;;;;;;;12.71;51.90;101162.09;4983361;28;20104;-71
2021/03/27 03:41:08;;;;;;;23.73;16.23;;;;;;;12.68;52.12;101160.47;4980357;28;20053;-72
2021/03/27 03:43:44;;;;;;;20.38;16.05;;;;;;;12.65;51.84;101157.97;4982621;28;20070;-72
2021/03/27 03:46:30;;;;;;;23.60;15.43;;;;;;;12.67;51.94;101158.75;4981523;28;20046;-72
2021/03/27 03:49:03;;;;;;;28.88;16.30;;;;;;;12.68;51.67;101164.84;4982524;28;20047;-72
2021/03/27 03:51:45;;;;;;;25.48;16.20;;;;;;;12.70;51.75;101166.47;4980678;28;20042;-72
2021/03/27 03:54:23;;;;;;;22.83;15.73;;;;;;;12.77;51.56;101167.88;4980433;28;20416;-72
2021/03/27 03:57:09;;;;;;;22.88;17.88;;;;;;;12.75;51.79;101168.88;4981898;28;20525;-71
2021/03/27 03:59:53;;;;;;;25.20;16.67;;;;;;;12.79;51.97;101162.59;4980627;28;20047;-71
2021/03/27 04:02:29;;;;;;;27.17;17.95;;;;;;;12.77;51.75;101162.66;4983269;28;20097;-71
2021/03/27 04:05:09;;;;;;;24.13;16.90;;;;;;;12.87;51.46;101154.41;4981749;28;20104;-72
2021/03/27 04:07:40;;;;;;;26.27;17.27;;;;;;;12.85;51.53;101159.72;4980836;28;20039;-72
2021/03/27 04:10:15;;;;;;;24.35;16.80;;;;;;;12.77;51.30;101161.81;4978130;28;20046;-71
2021/03/27 04:12:55;;;;;;;22.92;17.05;;;;;;;12.82;51.42;101165.91;4985009;28;20551;-70
2021/03/27 04:15:30;;;;;;;23.70;18.85;;;;;;;12.79;51.62;101170.47;4980415;28;20055;-71
2021/03/27 04:18:21;;;;;;;24.20;17.50;;;;;;;12.75;51.71;101164.50;4982630;28;20043;-71
2021/03/27 04:21:22;;;;;;;24.67;15.52;;;;;;;12.78;51.94;101158.25;4981334;28;20198;-70
2021/03/27 04:24:22;;;;;;;21.98;19.08;;;;;;;12.77;51.67;101164.41;4984246;28;20078;-71
2021/03/27 04:26:51;;;;;;;25.73;17.00;;;;;;;12.83;51.38;101172.00;4980335;28;20050;-71
2021/03/27 04:29:38;;;;;;;27.08;19.33;;;;;;;12.79;51.29;101171.31;4982234;28;20065;-71
2021/03/27 04:32:26;;;;;;;24.98;19.92;;;;;;;12.89;51.04;101170.88;4981346;28;20452;-71
2021/03/27 04:35:01;;;;;;;29.15;20.70;;;;;;;12.83;51.21;101166.75;4979112;28;20065;-71
2021/03/27 04:37:37;;;;;;;27.48;20.25;;;;;;;12.74;51.67;101165.41;4988416;28;20046;-71
2021/03/27 04:40:28;;;;;;;26.77;19.65;;;;;;;12.71;51.72;101169.94;4984916;28;20512;-71
2021/03/27 04:43:00;;;;;;;26.65;21.02;;;;;;;12.79;51.33;101178.31;4991840;28;20046;-73
2021/03/27 04:45:48;;;;;;;27.20;20.95;;;;;;;12.89;51.11;101176.97;4980807;28;20058;-73
2021/03/27 04:48:22;;;;;;;26.88;21.17;;;;;;;12.70;51.62;101176.94;4990214;28;20061;-72
2021/03/27 04:51:19;;;;;;;31.00;20.92;;;;;;;12.74;51.44;101175.03;4983583;28;20050;-72
2021/03/27 04:53:56;;;;;;;26.83;22.08;;;;;;;12.82;51.60;101170.31;4983410;28;20055;-72
2021/03/27 04:57:00;;;;;;;32.28;22.23;;;;;;;12.81;51.49;101173.84;4984209;28;20042;-70
2021/03/27 05:00:04;;;;;;;34.20;23.08;;;;;;;12.66;51.81;101179.75;4979516;28;20473;-71
2021/03/27 05:02:51;;;;;;;31.02;24.13;;;;;;;12.61;51.97;101181.72;4979091;28;20043;-70
2021/03/27 05:05:28;;;;;;;35.05;23.17;;;;;;;12.73;51.54;101175.94;4978270;28;20046;-71
2021/03/27 05:08:02;;;;;;;32.95;23.00;;;;;;;12.67;52.00;101182.28;4977301;28;20046;-71
2021/03/27 05:10:46;;;;;;;32.53;24.15;;;;;;;12.58;52.20;101190.56;4983272;28;20420;-70
2021/03/27 05:13:16;;;;;;;28.08;22.27;;;;;;;12.50;52.30;101184.78;4983779;28;20129;-70
2021/03/27 05:15:56;;;;;;;28.80;22.40;;;;;;;12.56;52.06;101184.53;4983404;28;20130;-70
2021/03/27 05:18:34;;;;;;;30.85;23.27;;;;;;;12.54;52.21;101199.44;4982018;28;20074;-70
2021/03/27 05:21:35;;;;;;;27.73;22.27;;;;;;;12.58;52.00;101199.25;4979586;28;20066;-70
2021/03/27 05:24:20;;;;;;;;;;;;;;;12.54;52.08;101205.53;4978750;28;20482;-70
2021/03/27 05:27:13;;;;;;;29.85;22.08;;;;;;;12.57;52.25;101218.47;4978315;28;20305;-69
2021/03/27 05:30:32;;;;;;;27.27;20.65;;;;;;;12.59;52.19;101224.47;4976913;28;20062;-69
2021/03/27 05:33:18;;;;;;;28.65;20.92;;;;;;;12.68;51.99;101214.56;4982630;28;20457;-72
2021/03/27 05:35:56;;;;;;;29.75;21.02;;;;;;;12.59;52.45;101216.63;4992460;28;20461;-73
2021/03/27 05:38:49;;;;;;;25.80;19.98;;;;;;;12.71;52.05;101217.03;4988576;28;20518;-73
2021/03/27 05:41:49;;;;;;;31.95;19.88;;;;;;;12.94;51.45;101216.84;4978915;28;20081;-74
2021/03/27 05:44:33;;;;;;;24.50;18.48;;;;;;;13.03;51.52;101212.97;4983279;28;20520;-72
2021/03/27 05:47:27;;;;;;;19.88;16.35;;;;;;;13.62;50.23;101223.34;4980930;28;20492;-71
2021/03/27 05:50:00;;;;;;;26.00;18.35;;;;;;;13.93;49.36;101219.28;4989608;28;20047;-71
2021/03/27 05:52:45;;;;;;;27.17;16.33;;;;;;;14.05;49.35;101218.69;4982836;28;20043;-72
2021/03/27 05:55:17;;;;;;;27.33;18.83;;;;;;;14.06;49.45;101223.03;4983340;28;20062;-72
2021/03/27 05:58:25;;;;;;;28.85;17.38;;;;;;;14.27;49.20;101223.69;4984884;28;20047;-73
2021/03/27 06:00:57;;;;;;;21.70;16.13;;;;;;;14.55;48.28;101233.72;4977341;28;20047;-74
2021/03/27 06:03:54;;;;;;;19.95;16.08;;;;;;;14.73;47.89;101229.28;4981427;28;20101;-73
2021/03/27 06:06:35;;;;;;;21.73;15.48;;;;;;;15.17;46.99;101233.97;4979765;28;20058;-79
2021/03/27 06:09:32;;;;;;;21.38;15.13;;;;;;;15.20;46.54;101233.81;4987825;28;20385;-67
2021/03/27 06:12:11;;;;;;;20.85;13.68;;;;;;;15.59;45.68;101222.91;4986403;28;20039;-66
2021/03/27 06:14:51;;;;;;;20.88;14.07;;;;;;;15.91;44.07;101220.28;4992114;28;20046;-71
2021/03/27 06:17:44;;;;;;;27.92;16.55;;;;;;;16.00;44.04;101232.94;4980717;28;20054;-80
2021/03/27 06:20:20;;;;;;;23.00;14.90;;;;;;;16.04;44.08;101230.97;4985314;28;20045;-79
2021/03/27 06:23:14;;;;;;;15.77;13.30;;;;;;;15.85;44.49;101239.91;4980055;28;20516;-80
2021/03/27 06:26:03;;;;;;;24.85;14.05;;;;;;;15.74;44.77;101241.44;4978996;28;20062;-72
2021/03/27 06:29:27;;;;;;;20.20;15.02;;;;;;;15.56;45.19;101246.75;4982734;28;20104;-70
2021/03/27 06:32:15;;;;;;;17.35;13.02;;;;;;;15.48;45.55;101238.41;4972708;28;20548;-70
2021/03/27 06:34:44;;;;;;;13.50;12.00;;;;;;;15.42;45.92;101242.22;4972708;28;20095;-70
2021/03/27 06:37:38;;;;;;;17.52;12.20;;;;;;;15.32;46.03;101246.28;4985750;28;20121;-70
2021/03/27 06:40:29;;;;;;;16.23;12.00;;;;;;;15.21;46.42;101243.41;4986156;28;20078;-71
2021/03/27 06:43:14;;;;;;;20.70;12.13;;;;;;;15.23;46.05;101243.31;4833372;28;20059;-70
2021/03/27 06:45:57;;;;;;;18.00;11.20;;;;;;;15.02;46.29;101243.53;4976840;28;20077;-70
2021/03/27 06:48:41;;;;;;;14.40;11.90;;;;;;;14.91;46.63;101245.84;4842971;28;70727;-70
2021/03/27 06:51:55;;;;;;;13.30;11.85;;;;;;;14.98;46.38;101234.13;4944562;29;20129;-71
2021/03/27 06:55:38;;;;;;;15.38;9.52;;;;;;;14.88;46.59;101235.53;5059605;27;864349;-72
2021/03/27 06:58:31;;;;;;;14.90;9.65;;;;;;;14.89;46.55;101248.56;5077646;28;20067;-69
2021/03/27 07:01:16;;;;;;;12.77;8.82;;;;;;;14.86;46.54;101243.50;5109344;28;20090;-69
2021/03/27 07:04:04;;;;;;;13.55;9.23;;;;;;;14.75;46.91;101244.94;5110030;28;20043;-69
2021/03/27 07:06:51;;;;;;;12.45;8.35;;;;;;;14.78;47.02;101244.81;5109251;28;20543;-69
2021/03/27 07:10:00;;;;;;;13.30;9.70;;;;;;;14.79;46.98;101239.47;5104011;28;20035;-68
2021/03/27 07:12:35;;;;;;;11.75;8.63;;;;;;;14.81;46.83;101249.91;5097540;28;20077;-71
2021/03/27 07:15:08;;;;;;;13.65;9.50;;;;;;;14.79;46.79;101247.34;5107355;28;20043;-73
2021/03/27 07:18:13;;;;;;;10.70;9.25;;;;;;;14.77;47.13;101245.72;5104166;28;20040;-72
2021/03/27 07:20:55;;;;;;;12.38;8.05;;;;;;;14.79;46.99;101246.50;5109422;28;20105;-72
2021/03/27 07:24:00;;;;;;;16.48;8.95;;;;;;;14.84;46.41;101240.06;5109646;28;20442;-70
2021/03/27 07:26:30;;;;;;;10.82;9.15;;;;;;;14.86;46.58;101247.88;5091408;28;20063;-70
2021/03/27 07:29:05;;;;;;;10.00;8.45;;;;;;;14.84;46.92;101250.56;5108886;28;20505;-70
2021/03/27 07:31:50;;;;;;;11.00;8.88;;;;;;;14.84;47.17;101247.09;5113091;28;20039;-72
2021/03/27 07:34:29;;;;;;;14.00;10.52;;;;;;;14.89;47.24;101247.72;5129992;28;20397;-77
2021/03/27 07:37:04;;;;;;;10.88;8.73;;;;;;;14.74;47.05;101245.88;5129280;28;20102;-76
2021/03/27 07:39:34;;;;;;;14.55;9.38;;;;;;;14.82;47.15;101246.34;5123827;28;20052;-76
2021/03/27 07:42:29;;;;;;;9.77;8.20;;;;;;;14.86;47.20;101246.13;5118017;28;20096;-77
2021/03/27 07:45:08;;;;;;;13.25;8.52;;;;;;;14.85;47.53;101248.78;5091227;27;20051;-77
2021/03/27 07:47:40;;;;;;;13.70;9.25;;;;;;;14.89;47.57;101252.97;5126448;28;20130;-76
2021/03/27 07:50:07;;;;;;;13.15;8.38;;;;;;;14.78;47.42;101250.91;5129992;27;20123;-75
2021/03/27 07:52:33;;;;;;;12.05;9.10;;;;;;;14.81;47.00;101244.66;5129831;28;20130;-78
2021/03/27 07:55:12;;;;;;;12.48;9.27;;;;;;;14.98;46.76;101252.50;5123197;27;20052;-77
2021/03/27 07:57:48;;;;;;;18.25;8.90;;;;;;;15.04;46.88;101253.94;5130234;28;20569;-79
2021/03/27 08:00:32;;;;;;;11.43;8.85;;;;;;;15.20;46.58;101258.31;5127923;28;20035;-77
2021/03/27 08:03:23;;;;;;;11.85;9.65;;;;;;;15.39;46.21;101259.94;5128229;28;20072;-77
2021/03/27 08:06:20;;;;;;;14.43;9.88;;;;;;;15.58;45.88;101268.53;5102503;28;20058;-77
2021/03/27 08:09:22;;;;;;;10.38;8.23;;;;;;;15.81;45.20;101271.69;5112725;28;20046;-77
2021/03/27 08:12:09;;;;;;;16.63;9.05;;;;;;;15.79;45.46;101276.19;5114482;28;20118;-78
2021/03/27 08:14:59;;;;;;;11.30;7.18;;;;;;;15.68;43.95;101277.63;5115318;28;20047;-77
2021/03/27 08:17:28;;;;;;;12.18;8.13;;;;;;;15.77;44.42;101278.06;5109270;28;20547;-78
2021/03/27 08:20:01;;;;;;;15.15;8.05;;;;;;;15.61;44.54;101284.16;5115907;28;20496;-78
2021/03/27 08:22:46;;;;;;;17.60;8.35;;;;;;;15.61;45.46;101284.16;5115147;28;20072;-75
2021/03/27 08:25:20;;;;;;;14.68;9.23;;;;;;;15.61;45.23;101284.16;5100099;28;20406;-74
2021/03/27 08:28:41;;;;;;;14.77;7.95;;;;;;;15.49;45.83;101289.19;5096279;28;20040;-75
2021/03/27 08:31:41;;;;;;;14.60;8.98;;;;;;;15.50;45.38;101281.25;5070230;28;20101;-73
2021/03/27 08:34:37;;;;;;;21.48;8.98;;;;;;;15.57;45.54;101287.84;5109281;28;20566;-77
2021/03/27 08:37:25;;;;;;;13.88;9.00;;;;;;;15.55;46.33;101294.13;5105041;28;20127;-77
2021/03/27 08:39:57;;;;;;;19.80;7.50;;;;;;;15.67;46.39;101291.72;5104490;28;20447;-78
2021/03/27 08:42:46;;;;;;;12.40;7.53;;;;;;;15.59;46.64;101293.03;5108693;28;20067;-77
2021/03/27 08:45:55;;;;;;;12.85;8.20;;;;;;;15.64;46.10;101297.13;5110475;28;20067;-77
2021/03/27 08:48:58;;;;;;;13.80;6.72;;;;;;;15.91;46.08;101286.03;5096665;28;20035;-74
2021/03/27 08:52:01;;;;;;;12.30;7.80;;;;;;;15.87;45.64;101293.25;5111662;28;20051;-75
2021/03/27 08:54:49;;;;;;;13.15;7.28;;;;;;;16.11;45.76;101285.75;5111323;28;20126;-77
2021/03/27 08:57:21;;;;;;;15.93;9.27;;;;;;;15.69;46.20;101289.84;5100900;28;20040;-76
2021/03/27 09:00:24;;;;;;;18.55;10.73;;;;;;;15.79;46.49;101282.31;5100530;28;20044;-77
2021/03/27 09:03:12;;;;;;;14.80;10.73;;;;;;;15.64;47.16;101293.66;5106646;28;20046;-76
2021/03/27 09:06:11;;;;;;;14.82;11.60;;;;;;;15.57;48.39;101294.91;5114829;28;20114;-68
2021/03/27 09:09:02;;;;;;;27.73;17.35;;;;;;;15.60;50.46;101297.34;5114570;28;20067;-77
2021/03/27 09:12:04;;;;;;;25.20;16.15;;;;;;;15.56;50.56;101301.09;5110245;28;20050;-72
2021/03/27 09:15:01;;;;;;;30.42;20.77;;;;;;;15.67;52.17;101302.22;5110706;28;20130;-76
2021/03/27 09:18:15;;;;;;;30.15;19.98;;;;;;;15.71;51.94;101313.41;5110014;28;20497;-69
2021/03/27 09:20:50;;;;;;;30.42;21.25;;;;;;;15.51;53.03;101314.47;5035173;28;20056;-72
2021/03/27 09:23:32;;;;;;;30.58;21.42;;;;;;;15.53;52.75;101317.84;5036226;28;20037;-79
2021/03/27 09:26:21;;;;;;;30.27;22.45;;;;;;;15.47;53.05;101326.06;5084023;28;20067;-77
2021/03/27 09:29:11;;;;;;;31.58;21.80;;;;;;;15.51;52.37;101322.34;5110967;28;20036;-75
2021/03/27 09:32:13;;;;;;;32.22;21.35;;;;;;;15.35;53.08;101329.34;5108974;28;20055;-77
2021/03/27 09:35:07;;;;;;;29.17;18.70;;;;;;;15.47;51.65;101331.31;5114016;28;20468;-73
2021/03/27 09:38:08;;;;;;;36.90;21.77;;;;;;;15.56;52.56;101322.13;5110331;28;20039;-79
2021/03/27 09:41:12;;;;;;;29.00;22.85;;;;;;;15.46;53.67;101321.75;5073858;28;20347;-73
2021/03/27 09:43:53;;;;;;;28.48;20.25;;;;;;;15.49;53.53;101321.56;5113467;28;20558;-75
2021/03/27 09:46:30;;;;;;;28.42;18.63;;;;;;;15.64;51.83;101318.16;5113258;28;20078;-74
2021/03/27 09:49:32;;;;;;;39.45;20.30;;;;;;;15.69;51.78;101318.75;5113881;28;20126;-72
2021/03/27 09:52:25;;;;;;;23.75;19.13;;;;;;;15.55;53.23;101318.63;5107178;28;20505;-74
2021/03/27 09:55:33;;;;;;;30.00;19.75;;;;;;;15.57;54.17;101324.66;5111249;28;20051;-79
2021/03/27 09:58:19;;;;;;;23.15;19.10;;;;;;;15.67;54.15;101327.69;5110083;28;20108;-81
2021/03/27 10:00:50;;;;;;;28.58;20.42;;;;;;;15.77;53.92;101328.88;5112338;28;20040;-75
2021/03/27 10:03:31;;;;;;;28.23;19.98;;;;;;;15.65;52.31;101327.72;5113172;28;20576;-76
2021/03/27 10:06:16;;;;;;;25.08;18.90;;;;;;;15.61;52.31;101325.34;5112854;28;20050;-72
2021/03/27 10:08:57;;;;;;;23.13;15.25;;;;;;;15.66;51.60;101328.59;5113295;28;20047;-70
2021/03/27 10:11:31;;;;;;;23.38;17.67;;;;;;;15.59;52.22;101324.56;5113310;27;20084;-73
2021/03/27 10:14:20;;;;;;;24.67;18.38;;;;;;;15.53;51.51;101323.13;5112848;28;20048;-73
2021/03/27 10:17:00;;;;;;;27.38;16.63;;;;;;;15.52;51.57;101329.31;5112726;28;20122;-73
2021/03/27 10:19:35;;;;;;;23.25;17.55;;;;;;;15.46;51.83;101322.59;5110638;28;20157;-72
2021/03/27 10:22:10;;;;;;;20.45;15.60;;;;;;;15.41;51.88;101318.53;5110318;28;20374;-72
2021/03/27 10:24:43;;;;;;;20.42;15.55;;;;;;;15.45;50.11;101325.31;5112636;28;20475;-72
2021/03/27 10:27:22;;;;;;;18.15;15.30;;;;;;;15.45;49.84;101320.91;5112889;28;20046;-71
2021/03/27 10:30:35;;;;;;;20.02;16.60;;;;;;;15.34;50.53;101322.38;5112329;28;20437;-70
2021/03/27 10:33:21;;;;;;;21.23;15.85;;;;;;;15.14;51.23;101323.44;5107026;28;20050;-73
2021/03/27 10:36:04;;;;;;;22.75;15.85;;;;;;;15.08;52.22;101322.00;5108452;28;20048;-71
2021/03/27 10:39:14;;;;;;;20.63;13.75;;;;;;;14.89;52.10;101319.44;5096803;28;20084;-71
2021/03/27 10:42:07;;;;;;;20.15;14.70;;;;;;;15.07;52.94;101317.63;5011702;28;20049;-71
2021/03/27 10:45:12;;;;;;;14.05;12.57;;;;;;;14.88;51.64;101317.75;5038822;28;20584;-71
2021/03/27 10:47:46;;;;;;;14.80;13.27;;;;;;;15.36;50.78;101324.00;5106161;28;20085;-67
2021/03/27 10:50:21;;;;;;;23.02;13.27;;;;;;;15.53;50.27;101317.84;5113098;28;20047;-67
2021/03/27 10:53:12;;;;;;;21.58;13.88;;;;;;;15.60;50.02;101319.22;5106400;28;20420;-68
2021/03/27 10:56:03;;;;;;;15.50;12.35;;;;;;;15.64;49.53;101319.94;5106405;28;20044;-68
2021/03/27 10:58:36;;;;;;;19.02;12.88;;;;;;;15.82;49.31;101320.72;5111098;28;20077;-68
2021/03/27 11:01:22;;;;;;;19.83;12.88;;;;;;;15.88;49.88;101321.25;5088976;28;20047;-68
2021/03/27 11:04:20;;;;;;;17.27;13.13;;;;;;;15.90;49.33;101314.09;5105804;28;20105;-67
2021/03/27 11:06:49;;;;;;;18.77;14.13;;;;;;;16.08;49.58;101314.84;5105620;28;20048;-67
2021/03/27 11:10:02;;;;;;;19.52;12.43;;;;;;;16.14;47.84;101327.69;5104387;28;20039;-67
2021/03/27 11:13:00;;;;;;;18.27;14.13;;;;;;;16.23;48.69;101314.00;5108784;28;20451;-65
2021/03/27 11:15:46;;;;;;;16.13;12.45;;;;;;;16.19;48.69;101317.75;5109262;28;20476;-66
2021/03/27 11:18:57;;;;;;;17.40;14.45;;;;;;;16.23;49.00;101319.25;5103884;28;20118;-68
2021/03/27 11:22:01;;;;;;;13.45;11.98;;;;;;;16.14;48.13;101319.81;5062848;28;20040;-68
2021/03/27 11:24:46;;;;;;;17.13;13.00;;;;;;;16.34;48.57;101323.91;5102198;28;20398;-68
2021/03/27 11:27:24;;;;;;;19.48;14.60;;;;;;;16.31;49.79;101324.09;5103909;28;20091;-68
2021/03/27 11:30:01;;;;;;;26.48;19.40;;;;;;;16.30;49.21;101325.03;5105007;28;20047;-68
2021/03/27 11:32:42;;;;;;;23.00;17.15;;;;;;;16.44;48.10;101311.09;5104660;28;20554;-65
2021/03/27 11:35:22;;;;;;;20.38;17.17;;;;;;;16.60;47.83;101317.16;5106769;28;20130;-66
2021/03/27 11:38:04;;;;;;;20.83;17.45;;;;;;;16.64;47.31;101313.41;5088439;28;20039;-65
2021/03/27 11:40:39;;;;;;;15.75;14.10;;;;;;;16.48;47.26;101307.34;5099133;28;20044;-66
2021/03/27 11:43:30;;;;;;;14.30;12.10;;;;;;;16.61;47.38;101308.31;5110794;28;20493;-66
2021/03/27 11:46:10;;;;;;;17.05;14.82;;;;;;;16.70;48.23;101313.06;5108981;28;20093;-66
2021/03/27 11:48:39;;;;;;;18.35;13.63;;;;;;;16.68;47.67;101319.34;5110372;28;20499;-66
2021/03/27 11:51:15;;;;;;;19.83;14.68;;;;;;;16.74;47.26;101317.25;5111104;28;20118;-67
2021/03/27 11:53:49;;;;;;;22.42;14.45;;;;;;;16.79;47.04;101305.59;5113230;28;20032;-66
2021/03/27 11:56:31;;;;;;;20.10;15.07;;;;;;;16.56;48.40;101305.09;5115496;28;20151;-66
2021/03/27 12:02:05;;;;;;;18.53;16.23;;;;;;;16.77;48.03;101310.94;5113637;28;20122;-66
2021/03/27 12:04:38;;;;;;;18.25;15.40;;;;;;;16.63;47.37;101306.47;5099255;28;20086;-67
2021/03/27 12:07:25;;;;;;;18.88;14.70;;;;;;;16.56;46.95;101305.09;5114777;28;20482;-67
2021/03/27 12:10:40;;;;;;;16.85;14.55;;;;;;;16.54;49.32;101301.72;5113058;28;20560;-67
2021/03/27 12:13:11;;;;;;;24.60;18.05;;;;;;;16.41;48.92;101301.59;5097704;28;20393;-68
2021/03/27 12:15:47;;;;;;;26.52;15.88;;;;;;;16.54;48.11;101306.97;5108727;28;20138;-67
2021/03/27 12:18:32;;;;;;;21.15;15.70;;;;;;;16.58;48.59;101308.50;5113208;28;20042;-67
2021/03/27 12:21:31;;;;;;;19.13;15.35;;;;;;;16.56;49.04;101305.09;5114663;28;20134;-68
2021/03/27 12:24:09;;;;;;;25.08;22.33;;;;;;;16.60;49.17;101311.88;5075398;28;20046;-67
2021/03/27 12:26:58;;;;;;;27.75;23.85;;;;;;;16.42;49.34;101308.53;5106776;28;21246;-67
2021/03/27 12:29:47;;;;;;;28.38;21.60;;;;;;;16.45;49.82;101310.97;5113187;28;20046;-67
2021/03/27 12:32:30;;;;;;;19.45;16.70;;;;;;;16.37;49.36;101313.22;5113020;28;20446;-68
2021/03/27 12:35:10;;;;;;;25.20;18.98;;;;;;;16.52;48.86;101314.13;5109573;28;20127;-68